Rocky Mountain, CO

2:44 PM MST on February 14, 2016 (GMT -0700)
Soaring Eagles | | Change Station
CLOSE
Current Station
Personal Weather Station
Location: Colorado Springs, CO
Elevation: 5991 ft
Nearby Weather Stations

Elev 5991 ft 38.79 °N, 104.74 °W | Updated 58 seconds ago

Mostly Cloudy
Mostly Cloudy
48.2 °F
Feels Like 48 °F
N
0.0
Wind Variable Wind from North
Gusts 0.0 mph

Today
High -- | Low -- °F
--% Chance of Precip.
Yesterday
High -- | Low -- °F
Precip. -- in
Pressure 29.86 in
Visibility 10.0 miles
Clouds Few 9500 ft
Few 14000 ft
Mostly Cloudy 20000 ft
Mostly Cloudy 25000 ft
Windchill 48 °F
Dew Point 26 °F
Humidity 42%
Rainfall 0.00 in
Snow Depth Not available.
6:51 AM 5:35 PM
Waxing Crescent, 45% visible
METAR KCOS 142054Z VRB03KT 10SM FEW095 FEW140 BKN200 BKN250 10/M06 A2989 RMK AO2 SLP112 ACSL S-W T01001056 56013
Pressure 29.86 in
Visibility 10.0 miles
Clouds Few 9500 ft
Few 14000 ft
Mostly Cloudy 20000 ft
Mostly Cloudy 25000 ft
Windchill 48 °F
Dew Point 26 °F
Humidity 42%
Rainfall 0.00 in
Snow Depth Not available.
6:51 AM 5:35 PM
Waxing Crescent, 45% visible
METAR KCOS 142054Z VRB03KT 10SM FEW095 FEW140 BKN200 BKN250 10/M06 A2989 RMK AO2 SLP112 ACSL S-W T01001056 56013

10-Day Weather Forecast

Almanac

Astronomy

Feb. 14, 2016 Rise Set
Actual Time
Civil Twilight
Nautical Twilight
Astronomical Twilight
Moon
Length of Visible Light
Length of Day
Tomorrow will be .
, % of the Moon is Illuminated

Today's Extremes

State Highs State Lows

Community

WunderPhotos

Upload Photos

1,892,890 photos uploaded!

WunderBlog® & News

Nearby

Air Quality

  Air Quality AQ Index Pollutant
Not available.

Snow Depth

Station Depth Elevation

Earthquake Activity

City Distance Mag. Time & Date
Minimum magnitude displayed is 2.5.

Coastal Water Temperatures

Place Temperature

Stations

Nearby Weather Stations

Station Location Temp. Windchill Dew Point Humidity Wind Precip. Elev Updated Type
                   

Watches & Warnings

There are currently no watches in effect.